Time;durP1;ratioP1;P1;durP2;ratioP2;P2;SDS_P1;SDS_P2;PMS_P1;PMS_P2;Temp;Humidity;BMP_temperature;BMP_pressure;BME280_temperature;BME280_humidity;BME280_pressure;Samples;Min_cycle;Max_cycle;Signal;HPM_P1;HPM_P2
2022/11/23 00:00:58;;;;;;;5.72;1.48;;;;;;;8.44;100.00;98335.69;12224776;19;20010;-84
2022/11/23 00:04:59;;;;;;;6.00;1.38;;;;;;;8.48;100.00;98336.81;12196261;19;20011;-85
2022/11/23 00:09:01;;;;;;;5.82;1.70;;;;;;;8.44;100.00;98338.44;12213916;19;20011;-85
2022/11/23 00:13:02;;;;;;;6.75;1.80;;;;;;;8.42;100.00;98340.63;12198835;19;20010;-83
2022/11/23 00:17:04;;;;;;;7.70;1.67;;;;;;;8.40;100.00;98326.34;12211896;19;20017;-85
2022/11/23 00:21:07;;;;;;;5.47;1.77;;;;;;;8.32;100.00;98335.91;12210187;19;20478;-84
2022/11/23 00:25:09;;;;;;;5.40;1.70;;;;;;;8.27;100.00;98346.03;12191384;19;20014;-84
2022/11/23 00:29:11;;;;;;;7.18;1.70;;;;;;;8.20;100.00;98343.56;12210457;19;20014;-84
2022/11/23 00:33:13;;;;;;;11.25;1.83;;;;;;;8.15;100.00;98347.13;12210736;19;20035;-84
2022/11/23 00:37:15;;;;;;;11.20;1.92;;;;;;;8.06;100.00;98343.25;12190638;19;20014;-83
2022/11/23 00:41:19;;;;;;;5.78;1.70;;;;;;;8.04;100.00;98348.19;12206886;19;20010;-82
2022/11/23 00:45:20;;;;;;;5.63;1.75;;;;;;;8.01;100.00;98345.97;12209402;19;20087;-82
2022/11/23 00:49:22;;;;;;;6.07;1.95;;;;;;;7.96;100.00;98349.50;12187292;19;20034;-82
2022/11/23 00:53:24;;;;;;;8.93;1.77;;;;;;;7.96;100.00;98359.66;12210592;19;20085;-81
2022/11/23 00:57:25;;;;;;;7.00;1.73;;;;;;;8.02;100.00;98363.25;12219599;19;20014;-82
2022/11/23 01:01:29;;;;;;;10.63;1.63;;;;;;;8.11;100.00;98378.09;12199236;19;20082;-80
2022/11/23 01:05:36;;;;;;;9.38;1.65;;;;;;;8.19;100.00;98364.69;12221144;19;20378;-82
2022/11/23 01:09:37;;;;;;;9.38;1.80;;;;;;;8.25;100.00;98368.28;12221238;19;20003;-81
2022/11/23 01:13:40;;;;;;;7.60;1.97;;;;;;;8.31;100.00;98371.88;12212811;19;20007;-80
2022/11/23 01:17:41;;;;;;;6.03;2.27;;;;;;;8.39;100.00;98369.44;12271081;19;20002;-80
2022/11/23 01:21:43;;;;;;;5.53;1.10;;;;;;;8.46;100.00;98362.88;12237976;19;20085;-83
2022/11/23 01:25:45;;;;;;;4.97;1.23;;;;;;;8.52;100.00;98370.84;12200461;19;20039;-81
2022/11/23 01:29:47;;;;;;;6.87;1.73;;;;;;;8.54;100.00;98367.84;12221340;19;20037;-82
2022/11/23 01:33:57;;;;;;;8.18;1.73;;;;;;;8.55;100.00;98356.56;12221480;19;20046;-82
2022/11/23 01:37:58;;;;;;;7.53;1.63;;;;;;;8.60;100.00;98370.31;12194185;19;20006;-83
2022/11/23 01:42:00;;;;;;;5.90;1.70;;;;;;;8.61;100.00;98369.22;12219404;19;20036;-82
2022/11/23 01:46:03;;;;;;;7.30;2.15;;;;;;;8.64;100.00;98365.91;12220595;19;20007;-81
2022/11/23 01:50:05;;;;;;;5.53;1.27;;;;;;;8.72;100.00;98359.06;12194974;19;20029;-81
2022/11/23 01:54:20;;;;;;;6.20;1.50;;;;;;;8.78;100.00;98370.88;12217997;19;20011;-81
2022/11/23 01:58:23;;;;;;;6.82;1.88;;;;;;;8.80;100.00;98374.16;12197533;19;20006;-82
2022/11/23 02:02:27;;;;;;;5.50;1.50;;;;;;;8.80;100.00;98368.69;12215897;19;20031;-82
2022/11/23 02:06:30;;;;;;;8.70;1.30;;;;;;;8.81;100.00;98367.59;12214577;19;20003;-82
2022/11/23 02:10:36;;;;;;;7.25;1.67;;;;;;;8.80;100.00;98365.94;12195675;19;20011;-80
2022/11/23 02:14:39;;;;;;;3.17;1.20;;;;;;;8.84;100.00;98372.53;12211287;19;20034;-81
2022/11/23 02:18:45;;;;;;;9.50;1.90;;;;;;;8.83;100.00;98379.97;12215136;19;20005;-81
2022/11/23 02:22:57;;;;;;;9.80;1.88;;;;;;;8.82;100.00;98369.22;12195077;19;20011;-81
2022/11/23 02:27:00;;;;;;;6.13;1.73;;;;;;;8.77;100.00;98381.03;12213706;19;20011;-83
2022/11/23 02:31:02;;;;;;;4.80;1.27;;;;;;;8.74;100.00;98369.78;12216634;19;20010;-81
2022/11/23 02:35:04;;;;;;;3.67;1.27;;;;;;;8.67;100.00;98375.53;12191389;19;20002;-82
2022/11/23 02:39:23;;;;;;;6.32;1.42;;;;;;;8.64;100.00;98371.41;12213700;19;20011;-83
2022/11/23 02:43:25;;;;;;;4.97;1.80;;;;;;;8.62;100.00;98368.09;12191810;19;20036;-81
2022/11/23 02:47:29;;;;;;;6.78;1.50;;;;;;;8.62;100.00;98373.59;12213034;19;20011;-81
2022/11/23 02:51:31;;;;;;;4.33;1.67;;;;;;;8.62;100.00;98370.03;12212476;19;20017;-82
2022/11/23 02:55:36;;;;;;;5.50;1.25;;;;;;;8.63;100.00;98363.47;12191835;19;20003;-83
2022/11/23 02:59:37;;;;;;;8.35;1.70;;;;;;;8.62;100.00;98361.78;12212928;19;20031;-81
2022/11/23 03:03:40;;;;;;;7.82;2.28;;;;;;;8.59;100.00;98357.66;12215175;19;20206;-82
2022/11/23 03:07:41;;;;;;;7.28;1.70;;;;;;;8.55;100.00;98351.06;12189750;19;20031;-81
2022/11/23 03:11:45;;;;;;;4.68;1.65;;;;;;;8.53;100.00;98352.44;12213033;19;20034;-81
2022/11/23 03:15:48;;;;;;;4.90;1.47;;;;;;;8.49;100.00;98354.91;12209565;19;20033;-81
2022/11/23 03:19:49;;;;;;;5.18;1.52;;;;;;;8.49;100.00;98354.91;12192213;19;20011;-82
2022/11/23 03:23:51;;;;;;;6.28;1.50;;;;;;;8.50;100.00;98345.56;12214150;19;20018;-82
2022/11/23 03:27:54;;;;;;;8.63;1.75;;;;;;;8.50;100.00;98353.81;12212340;19;20034;-82
2022/11/23 03:31:56;;;;;;;7.32;1.55;;;;;;;8.54;100.00;98354.13;12190612;19;20025;-82
2022/11/23 03:35:58;;;;;;;5.82;1.55;;;;;;;8.54;100.00;98357.69;12210787;19;20006;-82
2022/11/23 03:40:04;;;;;;;5.00;1.75;;;;;;;8.55;100.00;98364.81;12200501;19;20003;-81
2022/11/23 03:44:27;;;;;;;5.93;1.60;;;;;;;8.58;100.00;98360.69;12212888;19;20411;-80
2022/11/23 03:48:28;;;;;;;7.47;1.70;;;;;;;8.57;100.00;98359.88;12211752;19;20017;-82
2022/11/23 03:52:31;;;;;;;4.10;1.70;;;;;;;8.57;100.00;98368.13;12189012;19;20047;-84
2022/11/23 03:56:34;;;;;;;;;;;;;;;8.55;100.00;98364.81;12212925;19;20259;-80
2022/11/23 04:00:35;;;;;;;8.95;1.38;;;;;;;8.54;100.00;98365.91;12210625;19;20300;-80
2022/11/23 04:04:38;;;;;;;9.00;1.77;;;;;;;8.52;100.00;98364.53;12188693;19;20506;-81
2022/11/23 04:08:45;;;;;;;5.15;1.65;;;;;;;8.50;100.00;98370.28;12208862;19;20013;-82
2022/11/23 04:12:53;;;;;;;5.05;1.08;;;;;;;8.51;100.00;98371.13;12211131;19;20006;-83
2022/11/23 04:16:55;;;;;;;7.85;1.50;;;;;;;8.52;100.00;98373.59;12186430;19;20492;-81
2022/11/23 04:20:58;;;;;;;4.22;1.52;;;;;;;8.53;100.00;98372.47;12206952;19;20129;-82
2022/11/23 04:25:00;;;;;;;4.60;1.38;;;;;;;8.51;100.00;98365.63;12206455;19;20006;-82
2022/11/23 04:29:02;;;;;;;6.28;1.80;;;;;;;8.47;100.00;98370.81;12190914;19;20035;-81
2022/11/23 04:33:05;;;;;;;7.95;1.75;;;;;;;8.50;100.00;98370.28;12222400;19;20014;-81
2022/11/23 04:37:07;;;;;;;5.60;1.63;;;;;;;8.54;100.00;98357.69;12196922;19;20030;-83
2022/11/23 04:41:15;;;;;;;2.97;1.30;;;;;;;8.55;100.00;98355.75;12223536;19;20018;-82
2022/11/23 04:45:18;;;;;;;6.72;1.20;;;;;;;8.50;100.00;98362.03;12219565;19;20030;-82
2022/11/23 04:49:20;;;;;;;10.63;1.40;;;;;;;8.42;100.00;98362.59;12199645;19;20468;-82
2022/11/23 04:53:21;;;;;;;6.65;1.65;;;;;;;8.36;100.00;98360.91;12222500;19;20007;-83
2022/11/23 04:57:23;;;;;;;5.73;1.30;;;;;;;8.35;100.00;98362.81;12220709;19;20020;-82
2022/11/23 05:01:26;;;;;;;6.78;1.63;;;;;;;8.31;100.00;98356.22;12199144;19;20014;-82
2022/11/23 05:05:58;;;;;;;6.82;1.92;;;;;;;8.30;100.00;98356.47;12217745;19;20013;-82
2022/11/23 05:10:09;;;;;;;7.65;1.73;;;;;;;8.29;100.00;98358.41;12195814;19;20058;-82
2022/11/23 05:14:11;;;;;;;6.97;1.42;;;;;;;8.29;100.00;98354.84;12221040;19;20014;-81
2022/11/23 05:18:13;;;;;;;5.32;1.77;;;;;;;8.32;100.00;98349.63;12220746;19;20010;-82
2022/11/23 05:22:15;;;;;;;4.27;1.60;;;;;;;8.33;100.00;98359.53;12247310;19;20006;-79
2022/11/23 05:26:17;;;;;;;9.88;1.70;;;;;;;8.30;100.00;98359.22;12277683;19;20016;-81
2022/11/23 05:30:19;;;;;;;3.65;1.33;;;;;;;8.26;100.00;98358.94;12244879;19;20016;-83
2022/11/23 05:34:21;;;;;;;6.17;1.80;;;;;;;8.23;100.00;98359.47;12201977;19;20018;-81
2022/11/23 05:38:23;;;;;;;6.25;1.35;;;;;;;8.23;100.00;98359.47;12221828;19;20622;-82
2022/11/23 05:42:25;;;;;;;8.35;1.40;;;;;;;8.25;100.00;98365.53;12224090;19;20026;-82
2022/11/23 05:46:30;;;;;;;4.88;1.27;;;;;;;8.27;100.00;98370.75;12197087;19;20014;-83
2022/11/23 05:50:31;;;;;;;4.85;2.33;;;;;;;8.28;100.00;98366.91;12219638;19;20018;-81
2022/11/23 05:54:59;;;;;;;8.15;1.77;;;;;;;8.28;100.00;98364.19;12219219;19;20007;-82
2022/11/23 05:59:04;;;;;;;5.75;1.52;;;;;;;8.31;100.00;98374.63;12202563;19;20010;-83
2022/11/23 06:03:09;;;;;;;8.73;1.60;;;;;;;8.32;100.00;98373.50;12221468;19;20014;-83
2022/11/23 06:07:10;;;;;;;6.90;1.80;;;;;;;8.31;100.00;98369.94;12205153;19;20010;-82
2022/11/23 06:11:30;;;;;;;7.90;1.98;;;;;;;8.34;100.00;98379.56;12270703;19;20023;-81
2022/11/23 06:15:36;;;;;;;6.82;1.33;;;;;;;8.36;100.00;98385.59;12236433;19;20011;-83
2022/11/23 06:19:39;;;;;;;9.45;3.28;;;;;;;8.35;100.00;98384.75;12196476;19;20017;-83
2022/11/23 06:23:41;;;;;;;7.22;2.90;;;;;;;8.34;100.00;98393.28;12219832;19;20393;-83
2022/11/23 06:27:51;;;;;;;8.32;1.67;;;;;;;8.36;100.00;98382.88;12218652;19;20031;-82
2022/11/23 06:31:57;;;;;;;6.63;1.60;;;;;;;8.33;100.00;98389.72;12195380;19;20003;-82
2022/11/23 06:36:02;;;;;;;8.20;1.90;;;;;;;8.36;100.00;98388.34;12216366;19;20005;-83
2022/11/23 06:40:11;;;;;;;6.97;1.60;;;;;;;8.40;100.00;98392.22;12194195;19;20014;-83
2022/11/23 06:44:16;;;;;;;4.85;1.38;;;;;;;8.42;100.00;98385.38;12211278;19;20018;-82
2022/11/23 06:48:17;;;;;;;7.88;1.42;;;;;;;8.42;100.00;98396.34;12214337;19;20024;-82
2022/11/23 06:52:21;;;;;;;7.15;1.75;;;;;;;8.42;100.00;98390.88;12192164;19;20009;-84
2022/11/23 06:56:24;;;;;;;7.28;1.67;;;;;;;8.46;100.00;98391.16;12217019;19;20003;-83
2022/11/23 07:00:26;;;;;;;9.18;1.55;;;;;;;8.49;100.00;98404.31;12213463;19;20038;-82
2022/11/23 07:04:27;;;;;;;6.18;1.55;;;;;;;8.48;100.00;98408.19;12189836;19;20811;-83
2022/11/23 07:08:29;;;;;;;7.10;1.40;;;;;;;8.50;100.00;98405.97;12210891;19;20017;-83
2022/11/23 07:12:35;;;;;;;6.32;1.38;;;;;;;8.48;100.00;98410.94;12213322;19;20031;-83
2022/11/23 07:16:37;;;;;;;3.65;1.20;;;;;;;8.50;100.00;98405.97;12191047;19;20006;-82
2022/11/23 07:20:40;;;;;;;7.40;1.63;;;;;;;8.51;100.00;98404.91;12211754;19;20560;-83
2022/11/23 07:24:43;;;;;;;3.45;1.27;;;;;;;8.52;100.00;98409.28;12214357;19;20349;-83
2022/11/23 07:28:47;;;;;;;4.70;1.95;;;;;;;8.57;100.00;98409.31;12189681;19;20011;-84
2022/11/23 07:32:49;;;;;;;7.83;1.27;;;;;;;8.64;100.00;98409.03;12208967;19;20006;-82
2022/11/23 07:36:51;;;;;;;8.80;3.03;;;;;;;8.74;100.00;98413.72;12206701;19;20098;-82
2022/11/23 07:40:53;;;;;;;5.85;1.60;;;;;;;8.76;100.00;98422.50;12190397;19;20449;-82
2022/11/23 07:45:33;;;;;;;6.22;1.52;;;;;;;8.82;100.00;98421.41;12204125;19;20018;-83
2022/11/23 07:49:35;;;;;;;8.48;1.58;;;;;;;8.91;100.00;98436.25;12186526;19;20006;-83
2022/11/23 07:53:36;;;;;;;8.38;1.67;;;;;;;8.84;100.00;98430.22;12210344;19;20496;-81
2022/11/23 07:57:38;;;;;;;6.32;1.38;;;;;;;8.88;100.00;98434.06;12210031;19;20003;-82
2022/11/23 08:01:40;;;;;;;4.72;1.80;;;;;;;8.90;100.00;98434.63;12183742;19;20018;-83
2022/11/23 08:05:41;;;;;;;5.65;1.52;;;;;;;9.02;100.00;98443.44;12207295;19;20078;-82
2022/11/23 08:09:43;;;;;;;7.25;1.40;;;;;;;9.04;100.00;98445.88;12209188;19;20348;-83
2022/11/23 08:13:44;;;;;;;3.22;1.35;;;;;;;9.05;100.00;98440.13;12185444;19;20029;-83
2022/11/23 08:17:46;;;;;;;12.00;1.90;;;;;;;9.03;100.00;98439.56;12204462;19;20450;-83
2022/11/23 08:21:48;;;;;;;7.40;1.50;;;;;;;9.01;100.00;98436.31;12206904;19;20014;-82
2022/11/23 08:25:50;;;;;;;4.97;1.23;;;;;;;8.92;100.00;98440.66;12187521;19;20040;-82
2022/11/23 08:29:51;;;;;;;4.25;1.67;;;;;;;8.83;100.00;98442.28;12208929;19;20815;-82
2022/11/23 08:33:53;;;;;;;8.98;1.67;;;;;;;8.78;100.00;98450.53;12206371;19;20014;-82
2022/11/23 08:38:03;;;;;;;8.50;1.83;;;;;;;8.69;100.00;98447.50;12184463;19;20017;-82
2022/11/23 08:42:05;;;;;;;7.75;1.50;;;;;;;8.63;100.00;98452.16;12207358;19;20003;-82
2022/11/23 08:46:08;;;;;;;6.32;2.08;;;;;;;8.63;100.00;98454.06;12184422;19;20088;-82
2022/11/23 08:50:13;;;;;;;5.68;1.50;;;;;;;8.63;100.00;98456.81;12207648;19;20575;-83
2022/11/23 08:54:14;;;;;;;6.45;1.38;;;;;;;8.63;100.00;98457.63;12206223;19;20029;-83
2022/11/23 08:58:16;;;;;;;8.02;2.03;;;;;;;8.66;100.00;98451.59;12179911;19;20011;-82
2022/11/23 09:02:17;;;;;;;20.20;3.75;;;;;;;8.70;100.00;98451.88;12206479;19;20473;-82
2022/11/23 09:06:19;;;;;;;6.28;1.60;;;;;;;8.75;100.00;98453.84;12205356;19;20414;-82
2022/11/23 09:10:22;;;;;;;;;;;;;;;8.76;99.74;98450.78;12183659;19;20021;-82
2022/11/23 09:14:26;;;;;;;4.35;1.30;;;;;;;8.82;99.57;98459.88;12207708;19;19906;-82
2022/11/23 09:18:29;;;;;;;4.07;1.40;;;;;;;8.85;99.07;98454.66;12219537;19;20031;-82
2022/11/23 09:22:31;;;;;;;;;;;;;;;8.89;98.08;98454.94;12219025;19;20011;-80
2022/11/23 09:26:33;;;;;;;6.90;1.73;;;;;;;8.95;98.03;98458.53;12250150;19;19974;-83
2022/11/23 09:30:35;;;;;;;;;;;;;;;9.02;97.86;98459.91;12226104;19;20026;-83
2022/11/23 09:34:37;;;;;;;5.03;1.60;;;;;;;9.13;97.82;98455.25;12195985;19;19915;-83
2022/11/23 09:38:39;;;;;;;8.57;2.58;;;;;;;9.27;97.92;98458.28;12221432;19;20014;-82
2022/11/23 09:43:19;;;;;;;6.15;2.40;;;;;;;9.43;96.97;98462.69;12217957;19;20333;-84
2022/11/23 09:47:37;;;;;;;8.80;1.30;;;;;;;9.50;95.16;98452.22;12193611;19;20006;-82
2022/11/23 09:51:41;;;;;;;6.30;1.52;;;;;;;9.55;95.02;98455.00;12215277;19;20035;-82
2022/11/23 09:55:45;;;;;;;7.30;1.50;;;;;;;9.61;94.52;98452.22;12195044;19;20035;-83
2022/11/23 09:59:57;;;;;;;7.00;1.83;;;;;;;9.70;94.16;98456.06;12216499;19;20006;-83
2022/11/23 10:03:59;;;;;;;5.93;1.58;;;;;;;9.76;93.74;98463.22;12216095;19;20006;-83
2022/11/23 10:08:19;;;;;;;3.45;1.33;;;;;;;9.78;93.27;98450.81;12192531;19;20011;-83
2022/11/23 10:12:49;;;;;;;3.67;1.45;;;;;;;9.84;91.96;98453.56;12216663;19;20006;-84
2022/11/23 10:17:00;;;;;;;5.93;1.30;;;;;;;9.88;91.31;98447.25;12192738;19;20043;-82
2022/11/23 10:21:29;;;;;;;5.60;1.45;;;;;;;9.93;91.32;98441.69;12213866;19;20361;-82
2022/11/23 10:25:37;;;;;;;5.88;1.33;;;;;;;10.03;91.18;98446.38;12191906;19;20014;-83
2022/11/23 10:29:41;;;;;;;5.57;1.60;;;;;;;10.08;90.25;98440.84;12214630;19;20066;-83
2022/11/23 10:33:54;;;;;;;;;;;;;;;10.12;89.93;98436.44;12211182;19;20058;-82
2022/11/23 10:38:16;;;;;;;7.93;1.65;;;;;;;10.21;89.89;98431.19;12191502;19;20626;-83
2022/11/23 10:42:40;;;;;;;9.93;1.90;;;;;;;10.29;89.48;98424.28;12213672;19;20027;-83
2022/11/23 10:46:42;;;;;;;5.03;1.35;;;;;;;10.34;87.69;98427.84;12193569;19;20046;-82
2022/11/23 10:50:44;;;;;;;5.83;2.07;;;;;;;10.41;88.27;98422.88;12214476;19;20414;-83
2022/11/23 10:54:53;;;;;;;4.90;1.45;;;;;;;10.52;87.90;98418.09;12212234;19;20003;-82
2022/11/23 10:58:55;;;;;;;8.38;1.70;;;;;;;10.67;86.93;98417.19;12194086;19;20018;-82
2022/11/23 11:02:58;;;;;;;7.20;1.58;;;;;;;10.71;85.59;98410.84;12213996;19;20020;-83
2022/11/23 11:07:22;;;;;;;4.53;1.40;;;;;;;10.76;84.00;98404.47;12212632;19;20511;-82
2022/11/23 11:11:28;;;;;;;5.55;1.98;;;;;;;10.86;84.07;98398.91;12207780;19;20007;-81
2022/11/23 11:15:30;;;;;;;7.78;2.25;;;;;;;10.95;83.77;98391.69;12244455;19;20074;-84
2022/11/23 11:19:35;;;;;;;8.10;2.58;;;;;;;11.09;84.08;98389.06;12195171;19;20362;-84
2022/11/23 11:23:40;;;;;;;8.98;1.70;;;;;;;11.17;82.63;98382.94;12215860;19;20010;-83
2022/11/23 11:27:50;;;;;;;6.50;1.48;;;;;;;11.26;81.50;98385.91;12215375;19;20018;-83
2022/11/23 11:31:58;;;;;;;5.28;1.38;;;;;;;11.36;80.97;98377.56;12193210;19;20010;-83
2022/11/23 11:36:03;;;;;;;5.07;1.42;;;;;;;11.49;79.99;98378.00;12215330;19;20078;-83
2022/11/23 11:40:33;;;;;;;12.23;2.08;;;;;;;11.68;79.55;98364.25;12212527;19;20477;-82
2022/11/23 11:44:40;;;;;;;4.85;1.10;;;;;;;11.90;79.42;98361.00;12217273;19;20039;-83
2022/11/23 11:48:56;;;;;;;9.27;1.25;;;;;;;12.21;79.31;98355.94;12233284;19;20017;-82
2022/11/23 11:53:06;;;;;;;4.07;0.93;;;;;;;12.51;77.77;98350.00;12245343;19;19998;-81
2022/11/23 11:57:22;;;;;;;4.97;1.40;;;;;;;12.78;76.78;98349.31;12242878;19;20018;-83
2022/11/23 12:01:34;;;;;;;4.60;1.20;;;;;;;12.97;75.49;98346.53;12195086;19;20806;-82
2022/11/23 12:05:45;;;;;;;6.07;1.52;;;;;;;13.19;73.42;98332.06;12212949;19;20014;-83
2022/11/23 12:09:53;;;;;;;4.65;0.90;;;;;;;13.38;71.58;98337.56;12212884;19;20028;-83
2022/11/23 12:14:00;;;;;;;3.53;0.80;;;;;;;13.50;68.32;98325.19;12191043;19;20018;-84
2022/11/23 12:18:31;;;;;;;6.13;1.10;;;;;;;13.70;67.73;98318.44;12210643;19;20003;-84
2022/11/23 12:22:44;;;;;;;5.93;1.70;;;;;;;13.87;67.52;98313.13;12191719;19;20459;-83
2022/11/23 12:26:46;;;;;;;10.20;3.03;;;;;;;13.97;66.71;98318.44;12213121;19;20023;-83
2022/11/23 12:31:15;;;;;;;13.57;2.72;;;;;;;14.17;65.26;98317.19;12210970;19;20026;-82
2022/11/23 12:35:43;;;;;;;10.23;1.80;;;;;;;14.43;64.16;98302.81;12189832;19;20011;-83
2022/11/23 12:40:18;;;;;;;8.57;1.50;;;;;;;14.59;60.18;98306.88;12210664;19;20032;-83
2022/11/23 12:44:44;;;;;;;3.47;1.52;;;;;;;14.24;59.10;98303.75;12189975;19;20079;-83
2022/11/23 12:49:03;;;;;;;5.18;1.23;;;;;;;13.78;60.09;98298.38;12214357;19;20477;-82
2022/11/23 12:53:22;;;;;;;6.82;1.55;;;;;;;13.37;59.50;98304.69;12199344;19;20006;-83
2022/11/23 12:57:36;;;;;;;5.45;1.17;;;;;;;13.21;59.48;98304.94;12225514;19;20014;-86
2022/11/23 13:01:49;;;;;;;4.07;1.23;;;;;;;13.25;60.18;98305.16;12198903;19;20098;-84
2022/11/23 13:06:14;;;;;;;4.60;0.93;;;;;;;13.13;58.77;98300.09;12209422;19;20021;-82
2022/11/23 13:10:45;;;;;;;11.70;2.20;;;;;;;12.91;59.10;98298.00;12168430;19;20011;-83
2022/11/23 13:15:20;;;;;;;3.08;1.15;;;;;;;12.64;58.96;98298.72;12216600;19;20011;-82
2022/11/23 13:19:56;;;;;;;3.97;0.98;;;;;;;12.46;59.39;98296.75;12201502;19;20013;-83
2022/11/23 13:23:58;;;;;;;5.50;1.00;;;;;;;12.27;59.94;98294.00;12220785;19;20003;-82
2022/11/23 13:28:24;;;;;;;3.13;0.70;;;;;;;12.13;60.58;98296.66;12221915;19;20016;-82
2022/11/23 13:32:37;;;;;;;3.42;1.50;;;;;;;11.93;60.42;98288.66;12197436;19;20060;-83
2022/11/23 13:36:42;;;;;;;4.53;1.02;;;;;;;11.79;60.52;98289.34;12217900;19;20556;-82
2022/11/23 13:41:32;;;;;;;8.18;1.73;;;;;;;11.70;61.19;98276.50;12200674;19;20018;-83
2022/11/23 13:45:37;;;;;;;10.00;1.38;;;;;;;11.62;62.17;98269.69;12220217;19;20100;-83
2022/11/23 13:49:48;;;;;;;4.70;2.50;;;;;;;11.56;62.92;98268.94;12197364;19;19999;-82
2022/11/23 13:53:54;;;;;;;5.07;0.98;;;;;;;11.53;63.16;98252.16;12217514;19;20015;-82
2022/11/23 13:58:23;;;;;;;3.97;1.10;;;;;;;11.49;63.01;98234.56;12222807;19;20010;-82
2022/11/23 14:02:28;;;;;;;2.85;0.75;;;;;;;11.45;62.36;98230.72;12198459;19;20023;-84
2022/11/23 14:06:37;;;;;;;3.50;0.98;;;;;;;11.43;62.22;98241.25;12222639;19;20066;-83
2022/11/23 14:10:39;;;;;;;5.32;1.02;;;;;;;11.45;62.24;98233.47;12199192;19;20015;-83
2022/11/23 14:14:50;;;;;;;4.90;0.85;;;;;;;11.48;62.71;98224.63;12217762;19;20006;-82
2022/11/23 14:19:05;;;;;;;3.58;1.00;;;;;;;11.47;62.90;98222.97;12215121;19;20006;-83
2022/11/23 14:23:26;;;;;;;2.92;0.95;;;;;;;11.41;63.78;98212.00;12197475;19;20477;-82
2022/11/23 14:27:40;;;;;;;3.58;1.00;;;;;;;11.26;63.43;98203.09;12219696;19;20011;-83
2022/11/23 14:32:51;;;;;;;2.03;0.80;;;;;;;11.16;63.62;98207.63;12194212;19;20010;-82
2022/11/23 14:37:24;;;;;;;3.10;0.80;;;;;;;11.13;64.89;98199.13;12211084;19;20007;-83
2022/11/23 14:41:30;;;;;;;3.07;0.90;;;;;;;11.04;65.86;98198.13;12195474;19;20028;-82
2022/11/23 14:45:33;;;;;;;4.72;1.40;;;;;;;10.91;66.51;98194.09;12217304;19;20031;-82
2022/11/23 14:49:49;;;;;;;7.68;1.40;;;;;;;10.82;67.33;98198.59;12196752;19;20034;-82
2022/11/23 14:53:58;;;;;;;6.20;1.60;;;;;;;10.70;68.56;98199.81;12214291;19;20583;-82
2022/11/23 14:58:04;;;;;;;7.75;1.70;;;;;;;10.59;69.03;98202.94;12218085;19;20034;-83
2022/11/23 15:02:20;;;;;;;9.35;2.47;;;;;;;10.44;69.75;98207.50;12193351;19;20015;-83
2022/11/23 15:06:29;;;;;;;6.70;1.60;;;;;;;10.27;70.46;98210.66;12213028;19;20086;-82
2022/11/23 15:10:42;;;;;;;5.55;1.15;;;;;;;10.13;72.01;98215.13;12191375;19;20487;-82
2022/11/23 15:14:43;;;;;;;3.72;1.02;;;;;;;9.98;73.26;98213.28;12212007;19;20468;-82
2022/11/23 15:18:47;;;;;;;4.88;1.02;;;;;;;9.80;74.05;98212.03;12213685;19;20014;-83
2022/11/23 15:22:49;;;;;;;4.77;0.97;;;;;;;9.63;75.26;98210.75;12191866;19;20082;-82
2022/11/23 15:26:54;;;;;;;2.50;1.40;;;;;;;9.47;76.23;98224.56;12212335;19;20041;-82
2022/11/23 15:30:55;;;;;;;4.93;1.20;;;;;;;9.32;77.30;98219.13;12214112;19;20038;-82
2022/11/23 15:35:02;;;;;;;4.50;1.20;;;;;;;9.22;78.23;98214.50;12191907;19;20006;-82
2022/11/23 15:39:08;;;;;;;4.03;1.08;;;;;;;9.13;78.82;98213.41;12214950;19;20002;-82
2022/11/23 15:43:15;;;;;;;7.47;1.30;;;;;;;9.08;79.62;98222.50;12197254;19;20007;-82
2022/11/23 15:47:26;;;;;;;4.80;0.95;;;;;;;9.11;80.23;98232.94;12215365;19;20003;-82
2022/11/23 15:51:33;;;;;;;4.03;1.10;;;;;;;9.16;80.42;98234.88;12216814;19;20357;-83
2022/11/23 15:55:37;;;;;;;3.78;0.82;;;;;;;9.15;80.92;98222.22;12193692;19;20031;-83
2022/11/23 15:59:48;;;;;;;4.07;1.05;;;;;;;9.16;81.43;98225.78;12215160;19;20006;-81
2022/11/23 16:04:00;;;;;;;1.67;0.73;;;;;;;9.16;81.03;98226.63;12213473;19;20030;-83
2022/11/23 16:08:02;;;;;;;2.95;1.00;;;;;;;9.18;81.65;98227.16;12232165;19;20039;-82
2022/11/23 16:12:24;;;;;;;3.95;0.82;;;;;;;9.23;81.43;98229.06;12249887;19;20037;-83
2022/11/23 16:16:26;;;;;;;4.70;1.13;;;;;;;9.29;80.91;98236.19;12195031;19;20442;-82
2022/11/23 16:20:28;;;;;;;3.72;1.10;;;;;;;9.35;80.72;98241.38;12213693;19;20007;-83
2022/11/23 16:24:33;;;;;;;2.95;0.90;;;;;;;9.42;80.18;98234.78;12223712;19;20010;-83
2022/11/23 16:28:47;;;;;;;3.92;1.13;;;;;;;9.49;80.24;98251.81;12207384;19;20018;-83
2022/11/23 16:32:48;;;;;;;6.18;1.40;;;;;;;9.56;79.97;98250.38;12224420;19;20026;-83
2022/11/23 16:36:51;;;;;;;5.10;1.00;;;;;;;9.63;80.02;98265.75;12225834;19;20011;-83
2022/11/23 16:40:55;;;;;;;4.43;0.82;;;;;;;9.73;80.42;98276.72;12206291;19;20007;-83
2022/11/23 16:44:56;;;;;;;4.30;1.55;;;;;;;9.82;79.53;98266.78;12225014;19;20015;-83
2022/11/23 16:48:59;;;;;;;6.38;1.33;;;;;;;9.89;78.46;98270.03;12226661;19;20800;-83
2022/11/23 16:53:12;;;;;;;3.80;1.90;;;;;;;9.95;77.69;98284.59;12201232;19;20021;-82
2022/11/23 16:57:22;;;;;;;4.83;1.87;;;;;;;9.95;76.53;98290.91;12226755;19;20982;-83
2022/11/23 17:01:28;;;;;;;4.38;1.50;;;;;;;9.98;75.80;98287.59;12204730;19;20014;-82
2022/11/23 17:05:29;;;;;;;6.28;2.10;;;;;;;10.06;75.12;98294.44;12224281;19;20468;-83
2022/11/23 17:09:31;;;;;;;4.82;1.48;;;;;;;10.10;74.81;98300.19;12226593;19;20405;-82
2022/11/23 17:13:33;;;;;;;7.72;1.50;;;;;;;10.13;74.10;98311.47;12200954;19;20010;-83
2022/11/23 17:17:35;;;;;;;3.15;1.42;;;;;;;10.18;73.27;98321.63;12221268;19;20010;-83
2022/11/23 17:21:37;;;;;;;4.50;1.55;;;;;;;10.22;74.32;98334.53;12219278;19;20010;-81
2022/11/23 17:25:39;;;;;;;6.35;2.10;;;;;;;10.18;75.00;98335.41;12201629;19;20015;-84
2022/11/23 17:29:45;;;;;;;2.90;1.48;;;;;;;10.13;76.25;98351.94;12222615;19;20089;-82
2022/11/23 17:33:46;;;;;;;2.85;1.45;;;;;;;10.04;77.57;98366.25;12220502;19;20040;-83
2022/11/23 17:37:48;;;;;;;4.30;2.20;;;;;;;9.94;79.45;98382.84;12199924;19;20034;-83
2022/11/23 17:41:50;;;;;;;5.53;1.80;;;;;;;9.76;81.83;98391.69;12224611;19;20021;-82
2022/11/23 17:45:52;;;;;;;3.37;1.67;;;;;;;9.55;84.03;98407.41;12223325;19;20003;-84
2022/11/23 17:49:54;;;;;;;4.28;2.45;;;;;;;9.43;85.37;98409.59;12202948;19;20014;-84
2022/11/23 17:53:56;;;;;;;9.93;4.35;;;;;;;9.30;87.97;98416.50;12228900;19;20397;-84
2022/11/23 17:57:57;;;;;;;9.10;3.08;;;;;;;9.17;90.25;98428.88;12225813;19;20014;-83
2022/11/23 18:01:59;;;;;;;9.52;3.53;;;;;;;9.04;92.01;98434.91;12237979;19;20027;-81
2022/11/23 18:06:01;;;;;;;9.05;3.63;;;;;;;8.93;93.26;98439.56;12279097;19;20014;-80
2022/11/23 18:10:03;;;;;;;8.07;2.80;;;;;;;8.83;94.57;98445.03;12251964;19;20006;-83
2022/11/23 18:14:05;;;;;;;6.45;3.05;;;;;;;8.73;96.61;98448.59;12203109;19;20002;-82
2022/11/23 18:18:06;;;;;;;5.95;3.20;;;;;;;8.69;97.81;98443.94;12221480;19;20014;-83
2022/11/23 18:22:09;;;;;;;9.68;3.42;;;;;;;8.70;99.23;98451.88;12215679;19;20082;-82
2022/11/23 18:26:15;;;;;;;7.57;3.10;;;;;;;8.74;100.00;98452.97;12202794;19;20011;-83
2022/11/23 18:30:17;;;;;;;6.40;3.03;;;;;;;8.74;100.00;98463.97;12223084;19;20019;-83
2022/11/23 18:34:18;;;;;;;8.70;4.53;;;;;;;8.77;100.00;98468.09;12200966;19;20011;-83
2022/11/23 18:38:20;;;;;;;8.73;4.00;;;;;;;8.77;100.00;98473.59;12223203;19;20464;-82
2022/11/23 18:42:22;;;;;;;9.10;4.32;;;;;;;8.75;100.00;98476.63;12221137;19;20115;-83
2022/11/23 18:46:23;;;;;;;7.35;3.55;;;;;;;8.77;100.00;98481.81;12195420;19;20106;-82
2022/11/23 18:50:25;;;;;;;6.95;3.22;;;;;;;8.75;100.00;98482.13;12228424;19;20087;-82
2022/11/23 18:54:27;;;;;;;6.88;3.60;;;;;;;8.72;100.00;98488.16;12220417;19;20023;-82
2022/11/23 18:58:37;;;;;;;9.98;4.10;;;;;;;8.73;100.00;98483.47;12200839;19;20018;-83
2022/11/23 19:02:39;;;;;;;10.60;3.72;;;;;;;8.75;100.00;98486.78;12218770;19;20022;-82
2022/11/23 19:06:41;;;;;;;8.77;4.13;;;;;;;8.78;100.00;98495.31;12219545;19;20003;-82
2022/11/23 19:10:43;;;;;;;15.37;9.73;;;;;;;8.76;100.00;98504.91;12196351;19;20014;-83